Time;durP1;ratioP1;P1;durP2;ratioP2;P2;SDS_P1;SDS_P2;PMS_P1;PMS_P2;Temp;Humidity;BMP_temperature;BMP_pressure;BME280_temperature;BME280_humidity;BME280_pressure;Samples;Min_cycle;Max_cycle;Signal;HPM_P1;HPM_P2
2023/09/08 00:01:21;;;;;;;11.88;10.20;;;;;;;19.38;85.82;93515.75;5025683;28;20046;-86
2023/09/08 00:03:48;;;;;;;13.73;10.98;;;;;;;19.41;86.00;93515.22;5027985;28;20120;-86
2023/09/08 00:06:16;;;;;;;12.50;9.82;;;;;;;19.46;85.93;93525.66;5025938;28;20463;-86
2023/09/08 00:08:44;;;;;;;12.65;9.90;;;;;;;19.48;85.16;93521.75;5027041;28;20053;-86
2023/09/08 00:11:10;;;;;;;11.10;9.38;;;;;;;19.55;85.66;93531.94;5026920;28;20107;-85
2023/09/08 00:13:40;;;;;;;11.48;9.93;;;;;;;19.59;85.71;93535.56;5026283;28;20045;-86
2023/09/08 00:16:09;;;;;;;11.30;9.20;;;;;;;19.45;85.81;93532.69;5027944;28;20061;-85
2023/09/08 00:18:36;;;;;;;10.70;9.02;;;;;;;19.34;85.09;93518.06;5033845;28;20155;-86
2023/09/08 00:21:03;;;;;;;12.93;9.75;;;;;;;19.44;85.94;93528.50;5032917;28;20053;-86
2023/09/08 00:23:31;;;;;;;10.38;9.07;;;;;;;19.53;85.71;93525.41;5029499;28;20053;-85
2023/09/08 00:25:58;;;;;;;11.90;9.23;;;;;;;19.54;85.53;93530.38;5030063;28;20583;-85
2023/09/08 00:28:25;;;;;;;9.32;7.80;;;;;;;19.38;85.94;93508.72;5032577;28;20049;-85
2023/09/08 00:30:52;;;;;;;10.63;8.75;;;;;;;19.52;86.42;93529.84;5030823;28;20045;-85
2023/09/08 00:33:19;;;;;;;10.52;8.90;;;;;;;19.37;86.52;93514.97;5029920;28;20104;-84
2023/09/08 00:35:45;;;;;;;14.00;9.07;;;;;;;19.49;86.71;93517.34;5031445;28;20427;-85
2023/09/08 00:38:12;;;;;;;11.65;8.88;;;;;;;19.47;87.15;93516.78;5030172;28;20148;-85
2023/09/08 00:40:40;;;;;;;11.57;8.85;;;;;;;19.45;87.71;93511.84;5030643;28;20458;-84
2023/09/08 00:43:07;;;;;;;16.73;10.13;;;;;;;19.14;89.05;93475.31;5034235;28;20498;-84
2023/09/08 00:45:37;;;;;;;15.73;9.63;;;;;;;19.38;86.77;93507.94;5036765;28;20107;-85
2023/09/08 00:48:05;;;;;;;15.70;10.25;;;;;;;19.44;86.33;93512.88;5030317;28;20111;-85
2023/09/08 00:50:32;;;;;;;15.38;10.48;;;;;;;19.23;83.35;93494.63;5029788;28;20049;-86
2023/09/08 00:52:58;;;;;;;14.52;10.15;;;;;;;19.16;83.89;93496.66;5035669;28;20045;-87
2023/09/08 00:55:27;;;;;;;13.35;9.40;;;;;;;19.18;85.04;93517.25;5038024;28;20076;-85
2023/09/08 00:57:56;;;;;;;11.05;8.93;;;;;;;19.14;84.45;93513.56;5038833;28;20400;-86
2023/09/08 01:00:23;;;;;;;11.48;8.95;;;;;;;19.21;86.09;93534.97;5039945;28;20059;-86
2023/09/08 01:02:49;;;;;;;12.05;7.80;;;;;;;19.21;84.69;93522.72;5037677;28;20060;-85
2023/09/08 01:05:17;;;;;;;11.07;8.05;;;;;;;19.21;84.59;93521.97;5037498;28;20064;-83
2023/09/08 01:07:45;;;;;;;11.10;8.60;;;;;;;19.08;85.74;93494.56;5039202;28;20049;-83
2023/09/08 01:10:16;;;;;;;10.38;8.25;;;;;;;19.17;86.16;93502.66;5037435;28;20044;-83
2023/09/08 01:12:43;;;;;;;9.02;7.88;;;;;;;19.17;87.71;93511.25;5038551;28;20045;-85
2023/09/08 01:15:12;;;;;;;9.75;7.68;;;;;;;19.18;86.63;93518.03;5036788;28;20103;-85
2023/09/08 01:17:39;;;;;;;10.30;7.82;;;;;;;19.12;85.50;93519.03;5040334;28;20124;-86
2023/09/08 01:20:14;;;;;;;9.32;8.05;;;;;;;19.01;87.43;93499.97;5037675;28;20435;-84
2023/09/08 01:22:55;;;;;;;9.90;8.00;;;;;;;19.12;86.88;93519.03;5039018;28;20068;-83
2023/09/08 01:25:25;;;;;;;9.00;6.43;;;;;;;18.96;85.04;93499.97;5037965;28;20046;-81
2023/09/08 01:27:54;;;;;;;8.85;6.45;;;;;;;18.85;84.84;93506.94;5039176;28;20037;-82
2023/09/08 01:30:22;;;;;;;13.25;6.43;;;;;;;18.85;85.18;93519.16;5035326;28;20495;-83
2023/09/08 01:32:50;;;;;;;8.63;6.13;;;;;;;18.75;86.28;93505.06;5038834;28;20087;-82
2023/09/08 01:35:17;;;;;;;9.00;5.95;;;;;;;18.60;87.06;93502.41;5028665;28;20098;-81
2023/09/08 01:37:46;;;;;;;8.73;5.63;;;;;;;18.58;88.26;93510.47;5030034;28;20659;-82
2023/09/08 01:40:13;;;;;;;8.65;5.78;;;;;;;18.47;89.04;93493.22;5029274;28;20049;-81
2023/09/08 01:42:42;;;;;;;7.53;5.50;;;;;;;18.50;89.68;93497.91;5029511;28;20471;-84
2023/09/08 01:45:09;;;;;;;7.85;5.78;;;;;;;18.50;89.96;93490.91;5031912;28;20793;-84
2023/09/08 01:47:36;;;;;;;8.38;5.40;;;;;;;18.55;91.40;93490.13;5047200;28;20053;-85
2023/09/08 01:50:06;;;;;;;9.30;6.15;;;;;;;18.54;91.36;93488.56;5033223;28;20499;-85
2023/09/08 01:52:33;;;;;;;9.90;6.20;;;;;;;18.51;91.35;93486.50;5028958;28;20053;-85
2023/09/08 01:55:00;;;;;;;8.15;5.70;;;;;;;18.51;91.46;93471.66;5028790;28;20057;-85
2023/09/08 01:57:26;;;;;;;8.25;5.72;;;;;;;18.67;91.40;93490.75;5029560;28;20131;-84
2023/09/08 01:59:54;;;;;;;8.00;5.75;;;;;;;18.49;92.40;93485.94;5029140;28;20049;-84
2023/09/08 02:02:21;;;;;;;7.05;5.55;;;;;;;18.38;93.64;93493.69;5029436;28;20454;-84
2023/09/08 02:04:48;;;;;;;8.10;6.10;;;;;;;18.34;94.02;93490.03;5030101;28;20065;-85
2023/09/08 02:07:18;;;;;;;7.05;5.07;;;;;;;18.27;94.47;93479.06;5030734;28;20050;-85
2023/09/08 02:10:20;;;;;;;8.02;6.32;;;;;;;18.37;94.74;93489.53;5028605;28;20045;-83
2023/09/08 02:12:47;;;;;;;7.07;5.45;;;;;;;18.30;95.40;93492.34;5032281;28;20495;-84
2023/09/08 02:15:15;;;;;;;7.15;5.53;;;;;;;18.36;95.47;93490.56;5028447;28;20050;-85
2023/09/08 02:17:42;;;;;;;8.20;5.97;;;;;;;18.35;95.09;93480.41;5028295;28;20054;-85
2023/09/08 02:20:10;;;;;;;8.98;6.13;;;;;;;18.46;94.17;93486.47;5028431;28;20042;-86
2023/09/08 02:22:37;;;;;;;8.07;5.93;;;;;;;18.45;95.25;93480.47;5028827;28;20053;-86
2023/09/08 02:25:04;;;;;;;7.97;6.25;;;;;;;18.39;95.96;93473.69;5028712;28;20396;-86
2023/09/08 02:27:31;;;;;;;8.23;6.05;;;;;;;17.85;96.38;93397.41;5030727;28;20116;-86
2023/09/08 02:29:58;;;;;;;8.40;5.82;;;;;;;18.39;96.37;93478.88;5028368;28;20052;-84
2023/09/08 02:32:26;;;;;;;9.68;6.10;;;;;;;18.38;96.64;93480.69;5027610;28;20046;-85
2023/09/08 02:34:53;;;;;;;8.35;5.80;;;;;;;18.41;95.83;93472.41;5030549;28;20050;-86
2023/09/08 02:37:19;;;;;;;7.63;6.18;;;;;;;18.37;95.98;93462.75;5027304;28;20054;-84
2023/09/08 02:39:46;;;;;;;6.93;5.65;;;;;;;18.27;97.02;93460.84;5038195;28;20074;-85
2023/09/08 02:42:13;;;;;;;9.70;6.03;;;;;;;18.43;96.57;93472.16;5030431;28;20115;-82
2023/09/08 02:44:39;;;;;;;9.68;6.55;;;;;;;18.25;97.21;93461.13;5028013;28;20057;-83
2023/09/08 02:47:07;;;;;;;9.35;6.45;;;;;;;18.16;97.88;93462.63;5027873;28;20165;-85
2023/09/08 02:49:35;;;;;;;9.68;6.10;;;;;;;18.13;97.82;93463.91;5028245;28;20052;-84
2023/09/08 02:52:02;;;;;;;7.93;6.35;;;;;;;18.13;98.25;93463.13;5028320;28;20053;-84
2023/09/08 02:54:29;;;;;;;9.00;6.78;;;;;;;18.05;98.98;93456.53;5027780;28;20058;-83
2023/09/08 02:56:56;;;;;;;8.30;6.43;;;;;;;17.88;99.13;93430.72;5010426;28;20053;-85
2023/09/08 02:59:23;;;;;;;9.35;6.82;;;;;;;18.06;99.42;93452.94;5028961;28;20451;-86
2023/09/08 03:01:49;;;;;;;10.02;7.43;;;;;;;17.86;99.88;93435.34;5035390;28;20396;-85
2023/09/08 03:04:55;;;;;;;;;;;;;;;;;;;;;
2023/09/08 03:07:44;;;;;;;;;;;;;;;;;;;;;
2023/09/08 03:10:12;;;;;;;9.80;6.72;;;;;;;16.80;100.00;93385.38;5031768;28;20053;-87
2023/09/08 03:12:39;;;;;;;8.38;6.70;;;;;;;17.19;100.00;93456.38;5027843;28;20049;-85
2023/09/08 03:15:07;;;;;;;8.05;6.10;;;;;;;16.96;100.00;93458.19;5027263;28;20384;-85
2023/09/08 03:17:34;;;;;;;11.07;6.80;;;;;;;16.80;100.00;93437.25;5027668;28;20042;-85
2023/09/08 03:20:01;;;;;;;7.93;6.93;;;;;;;16.90;100.00;93446.19;5027886;28;20049;-85
2023/09/08 03:22:29;;;;;;;9.00;7.45;;;;;;;16.70;100.00;93418.97;5027423;28;20104;-85
2023/09/08 03:24:56;;;;;;;10.38;6.80;;;;;;;16.77;100.00;93421.38;5029881;28;20057;-86
2023/09/08 03:27:25;;;;;;;9.52;7.43;;;;;;;17.08;100.00;93461.44;5046005;28;20048;-86
2023/09/08 03:29:52;;;;;;;10.68;7.10;;;;;;;17.15;100.00;93457.88;5041918;28;20121;-85
2023/09/08 03:32:19;;;;;;;10.38;6.47;;;;;;;17.02;100.00;93446.03;5026367;28;20084;-85
2023/09/08 03:34:48;;;;;;;7.78;6.30;;;;;;;17.04;100.00;93462.19;5027727;28;20123;-85
2023/09/08 03:37:16;;;;;;;8.45;6.40;;;;;;;17.03;100.00;93448.41;5027591;28;20136;-86
2023/09/08 03:39:45;;;;;;;9.48;6.90;;;;;;;16.47;100.00;93384.50;5028216;28;20062;-85
2023/09/08 03:42:34;;;;;;;9.52;6.68;;;;;;;16.30;100.00;93358.66;5027586;28;20108;-86
2023/09/08 03:45:10;;;;;;;8.88;6.45;;;;;;;16.68;100.00;93408.84;5016745;28;20303;-85
2023/09/08 03:47:43;;;;;;;10.07;6.15;;;;;;;16.96;100.00;93445.22;5033613;28;20057;-85
2023/09/08 03:50:11;;;;;;;7.82;5.93;;;;;;;16.45;100.00;93389.13;5027607;28;20418;-85
2023/09/08 03:52:38;;;;;;;8.32;6.78;;;;;;;16.27;100.00;93352.13;5034420;28;20052;-85
2023/09/08 03:55:06;;;;;;;9.13;6.57;;;;;;;16.82;100.00;93444.78;5033525;28;20061;-83
2023/09/08 03:57:33;;;;;;;9.90;6.60;;;;;;;16.93;100.00;93472.41;5038747;28;20041;-84
2023/09/08 04:00:00;;;;;;;9.05;6.47;;;;;;;16.87;100.00;93472.59;5043729;28;20049;-83
2023/09/08 04:02:26;;;;;;;8.45;6.28;;;;;;;16.24;100.00;93419.22;5040658;28;20499;-82
2023/09/08 04:04:53;;;;;;;8.52;6.75;;;;;;;16.61;100.00;93465.28;5034334;28;20096;-84
2023/09/08 04:07:20;;;;;;;14.38;7.20;;;;;;;16.67;100.00;93468.75;5032063;28;20095;-83
2023/09/08 04:09:47;;;;;;;12.50;7.22;;;;;;;16.65;100.00;93466.38;5047990;28;20095;-83
2023/09/08 04:12:15;;;;;;;9.38;7.32;;;;;;;16.55;100.00;93459.28;5031438;28;20084;-83
2023/09/08 04:14:42;;;;;;;9.40;6.70;;;;;;;16.53;100.00;93471.69;5031845;28;20069;-84
2023/09/08 04:17:09;;;;;;;10.57;8.02;;;;;;;16.55;100.00;93477.44;5036438;28;20049;-84
2023/09/08 04:19:35;;;;;;;10.85;6.68;;;;;;;16.61;100.00;93475.66;5039445;28;20041;-84
2023/09/08 04:22:02;;;;;;;15.40;7.15;;;;;;;16.65;100.00;93475.97;5035228;28;20096;-83
2023/09/08 04:24:29;;;;;;;11.02;7.25;;;;;;;16.59;100.00;93469.94;5034975;28;20111;-83
2023/09/08 04:26:55;;;;;;;9.80;6.50;;;;;;;16.32;100.00;93459.47;5033151;28;20053;-82
2023/09/08 04:29:23;;;;;;;9.68;6.63;;;;;;;16.19;100.00;93482.13;5041687;28;20151;-83
2023/09/08 04:31:50;;;;;;;9.20;6.30;;;;;;;16.09;100.00;93495.72;5032161;28;20467;-85
2023/09/08 04:34:21;;;;;;;9.68;6.78;;;;;;;15.96;100.00;93494.22;5035081;28;20049;-86
2023/09/08 04:36:48;;;;;;;10.85;7.00;;;;;;;16.04;100.00;93480.09;5037216;28;20565;-86
2023/09/08 04:39:15;;;;;;;9.07;6.90;;;;;;;15.81;100.00;93432.59;5032466;28;20065;-85
2023/09/08 04:41:42;;;;;;;9.45;6.95;;;;;;;16.11;100.00;93459.97;5032027;28;20072;-86
2023/09/08 04:44:09;;;;;;;8.55;5.63;;;;;;;16.17;100.00;93482.34;5031057;28;20053;-85
2023/09/08 04:46:37;;;;;;;10.32;6.18;;;;;;;16.05;100.00;93460.94;5031577;28;20471;-86
2023/09/08 04:49:04;;;;;;;10.40;6.63;;;;;;;16.19;100.00;93486.53;5033558;28;20107;-86
2023/09/08 04:51:30;;;;;;;8.05;6.30;;;;;;;16.38;100.00;93507.78;5037259;28;20052;-87
2023/09/08 04:53:57;;;;;;;9.98;7.00;;;;;;;16.46;100.00;93501.41;5034806;28;20048;-87
2023/09/08 04:56:41;;;;;;;10.10;6.57;;;;;;;16.47;100.00;93480.41;5038063;28;20057;-87
2023/09/08 04:59:08;;;;;;;9.32;6.63;;;;;;;16.51;100.00;93496.28;5030177;28;20056;-87
2023/09/08 05:01:37;;;;;;;9.40;6.57;;;;;;;15.90;100.00;93443.34;5036326;28;20045;-85
2023/09/08 05:04:04;;;;;;;7.85;5.07;;;;;;;16.29;100.00;93494.44;5036857;28;20053;-83
2023/09/08 05:06:31;;;;;;;8.20;5.07;;;;;;;16.15;100.00;93452.50;5039236;28;20045;-85
2023/09/08 05:08:59;;;;;;;6.95;4.72;;;;;;;16.64;100.00;93501.13;5040446;28;20048;-85
2023/09/08 05:11:26;;;;;;;7.28;5.40;;;;;;;16.52;100.00;93464.16;5039663;28;20049;-86
2023/09/08 05:13:53;;;;;;;5.82;4.22;;;;;;;16.87;100.00;93499.34;5039541;28;20049;-85
2023/09/08 05:16:25;;;;;;;6.78;4.88;;;;;;;16.93;100.00;93500.16;5038877;28;20109;-86
2023/09/08 05:18:54;;;;;;;6.32;4.43;;;;;;;17.01;100.00;93491.19;5035126;28;20125;-86
2023/09/08 05:21:20;;;;;;;6.95;4.72;;;;;;;16.87;100.00;93455.22;5030948;28;20053;-85
2023/09/08 05:23:47;;;;;;;8.20;5.07;;;;;;;16.69;100.00;93428.56;5035442;28;20057;-86
2023/09/08 05:26:14;;;;;;;7.40;4.78;;;;;;;16.94;100.00;93468.78;5040301;28;20055;-86
2023/09/08 05:28:41;;;;;;;6.38;4.50;;;;;;;16.98;100.00;93470.91;5040317;28;20049;-86
2023/09/08 05:31:07;;;;;;;6.65;4.45;;;;;;;17.26;100.00;93501.06;5034307;28;20407;-85
2023/09/08 05:33:34;;;;;;;5.45;3.75;;;;;;;17.14;100.00;93474.47;5030725;28;20037;-86
2023/09/08 05:36:05;;;;;;;6.63;3.78;;;;;;;17.10;99.29;93443.03;5038019;28;21391;-86
2023/09/08 05:38:31;;;;;;;6.93;3.90;;;;;;;17.33;97.33;93462.75;5036855;28;20040;-85
2023/09/08 05:40:58;;;;;;;5.43;3.63;;;;;;;17.66;97.19;93503.53;5031424;28;20088;-85
2023/09/08 05:43:26;;;;;;;5.72;4.10;;;;;;;17.68;96.18;93504.84;5043064;28;20080;-87
2023/09/08 05:45:53;;;;;;;6.88;3.72;;;;;;;17.66;95.53;93495.72;5041702;28;20049;-86
2023/09/08 05:48:20;;;;;;;4.85;3.30;;;;;;;17.69;95.12;93492.66;5027319;28;20049;-85
2023/09/08 05:50:47;;;;;;;7.03;4.43;;;;;;;17.99;95.35;93510.31;5028465;28;20049;-85
2023/09/08 05:53:15;;;;;;;5.72;3.42;;;;;;;18.07;93.88;93509.09;5028299;28;20461;-86
2023/09/08 05:55:43;;;;;;;4.43;3.13;;;;;;;18.19;91.49;93515.94;4903981;28;3608871;-88
2023/09/08 05:58:10;;;;;;;12.57;4.15;;;;;;;18.33;92.48;93511.88;5028665;28;20103;-87
2023/09/08 06:00:37;;;;;;;7.65;4.10;;;;;;;18.15;91.40;93474.84;5032334;28;20049;-84
2023/09/08 06:03:05;;;;;;;6.07;4.07;;;;;;;18.38;88.37;93509.28;5029301;28;20116;-87
2023/09/08 06:05:31;;;;;;;9.65;3.60;;;;;;;18.46;88.03;93508.03;5029240;28;20046;-85
2023/09/08 06:08:01;;;;;;;7.13;3.42;;;;;;;18.47;87.84;93501.03;5029397;28;20037;-85
2023/09/08 06:10:30;;;;;;;6.32;3.08;;;;;;;18.30;87.23;93468.94;5033896;28;20179;-87
2023/09/08 06:13:02;;;;;;;4.70;2.95;;;;;;;18.55;86.59;93508.34;5029239;28;20566;-84
2023/09/08 06:15:29;;;;;;;5.68;2.92;;;;;;;18.79;83.28;93529.56;5032601;28;20648;-82
2023/09/08 06:17:56;;;;;;;7.30;3.00;;;;;;;18.88;81.99;93523.88;5028919;28;20385;-85
2023/09/08 06:20:24;;;;;;;6.63;3.03;;;;;;;19.04;82.21;93532.56;5038633;28;20057;-83
2023/09/08 06:22:50;;;;;;;6.63;3.15;;;;;;;19.04;79.94;93541.16;5030837;28;20821;-82
2023/09/08 06:25:17;;;;;;;6.32;2.40;;;;;;;18.72;80.77;93486.56;5027868;28;20472;-87
2023/09/08 06:27:47;;;;;;;7.55;3.10;;;;;;;19.12;80.10;93508.63;5028744;28;20045;-87
2023/09/08 06:30:16;;;;;;;7.13;2.75;;;;;;;19.18;78.63;93525.06;5034671;28;20063;-85
2023/09/08 06:32:47;;;;;;;5.07;2.60;;;;;;;19.13;80.73;93538.84;5027257;28;20049;-88
2023/09/08 06:35:14;;;;;;;4.18;2.40;;;;;;;18.73;79.43;93516.75;5027627;28;20057;-85
2023/09/08 06:37:42;;;;;;;4.18;2.63;;;;;;;19.00;80.72;93550.47;5031923;28;20049;-85
2023/09/08 06:40:09;;;;;;;7.82;2.97;;;;;;;18.81;80.04;93532.72;5035102;28;20045;-86
2023/09/08 06:42:36;;;;;;;6.28;2.90;;;;;;;18.93;79.84;93552.53;5027951;28;20219;-84
2023/09/08 06:45:08;;;;;;;5.95;2.95;;;;;;;18.93;80.30;93550.69;5027919;28;20049;-82
2023/09/08 06:47:35;;;;;;;5.88;3.42;;;;;;;18.97;79.00;93543.16;5029273;28;20057;-85
2023/09/08 06:50:02;;;;;;;8.40;2.97;;;;;;;18.98;78.92;93556.97;5028176;28;20049;-86
2023/09/08 06:52:29;;;;;;;8.27;4.03;;;;;;;19.00;77.17;93560.09;5027870;28;20053;-83
2023/09/08 06:54:56;;;;;;;4.50;2.65;;;;;;;19.08;77.39;93557.06;5031207;28;20060;-84
2023/09/08 06:57:22;;;;;;;3.83;2.20;;;;;;;19.02;76.05;93561.41;5028417;28;20091;-81
2023/09/08 06:59:49;;;;;;;6.45;2.58;;;;;;;19.27;76.42;93559.19;5029779;28;20056;-83
2023/09/08 07:02:17;;;;;;;3.90;2.47;;;;;;;19.39;75.11;93554.53;5029459;28;20049;-88
2023/09/08 07:04:44;;;;;;;5.45;3.03;;;;;;;19.45;74.94;93568.38;5033379;28;20052;-84
2023/09/08 07:07:11;;;;;;;4.50;2.53;;;;;;;18.83;75.08;93481.19;5045674;28;20041;-87
2023/09/08 07:09:38;;;;;;;4.90;2.60;;;;;;;19.50;75.31;93565.78;5044986;28;20057;-85
2023/09/08 07:12:06;;;;;;;5.43;2.33;;;;;;;19.34;75.19;93538.91;5030972;28;20049;-85
2023/09/08 07:14:33;;;;;;;6.78;3.40;;;;;;;19.58;75.20;93543.66;5028175;28;20546;-86
2023/09/08 07:17:00;;;;;;;5.78;3.13;;;;;;;19.41;74.80;93508.22;5028674;28;20123;-86
2023/09/08 07:19:28;;;;;;;4.00;2.17;;;;;;;19.71;73.48;93518.91;5028175;28;20049;-87
2023/09/08 07:21:55;;;;;;;4.85;2.42;;;;;;;19.73;72.75;93515.00;5027468;28;20107;-89
2023/09/08 07:24:22;;;;;;;4.53;2.45;;;;;;;20.01;73.38;93580.00;5029688;28;20498;-86
2023/09/08 07:26:56;;;;;;;4.82;2.58;;;;;;;20.13;72.84;93579.72;5027871;28;20392;-86
2023/09/08 07:29:23;;;;;;;4.25;2.67;;;;;;;20.16;72.80;93563.56;5028653;28;20948;-87
2023/09/08 07:31:51;;;;;;;4.90;2.50;;;;;;;20.25;72.41;93551.56;5031868;28;20066;-87
2023/09/08 07:34:18;;;;;;;4.85;2.75;;;;;;;20.23;72.54;93558.09;5031583;28;20388;-86
2023/09/08 07:36:46;;;;;;;3.72;2.22;;;;;;;20.27;72.61;93520.78;5028641;28;20123;-87
2023/09/08 07:39:13;;;;;;;5.82;3.28;;;;;;;20.87;70.14;93584.66;5028908;28;20049;-87
2023/09/08 07:41:41;;;;;;;4.72;2.70;;;;;;;20.32;70.34;93503.56;5029630;28;20522;-87
2023/09/08 07:44:08;;;;;;;10.50;2.90;;;;;;;20.69;70.17;93555.44;5036996;28;20049;-88
2023/09/08 07:46:35;;;;;;;3.35;2.55;;;;;;;20.82;70.77;93585.44;5030086;28;20134;-87
2023/09/08 07:49:02;;;;;;;6.28;3.15;;;;;;;21.07;70.12;93588.28;5030936;28;20053;-85
2023/09/08 07:51:31;;;;;;;3.80;3.10;;;;;;;20.85;68.27;93528.50;5034029;28;20538;-87
2023/09/08 07:53:59;;;;;;;5.30;2.33;;;;;;;20.76;69.13;93534.28;5027769;28;20937;-85
2023/09/08 07:56:26;;;;;;;4.93;3.00;;;;;;;21.35;70.33;93575.63;5035042;28;20057;-87
2023/09/08 07:58:53;;;;;;;13.13;2.58;;;;;;;21.64;68.36;93585.41;5028261;28;20084;-86
2023/09/08 08:01:20;;;;;;;4.63;2.50;;;;;;;21.54;67.46;93544.44;5038446;28;20049;-87
2023/09/08 08:03:55;;;;;;;4.78;2.38;;;;;;;21.92;67.32;93577.16;5031852;28;20056;-86
2023/09/08 08:06:35;;;;;;;;;;;;;;;;;;;;;
2023/09/08 08:09:03;;;;;;;3.67;1.95;;;;;;;21.97;63.96;93562.25;5030979;28;20075;-84
2023/09/08 08:11:30;;;;;;;4.00;2.55;;;;;;;22.23;63.50;93584.81;5029030;28;20053;-82
2023/09/08 08:13:57;;;;;;;3.58;2.42;;;;;;;22.22;64.15;93576.16;5031043;28;20049;-85
2023/09/08 08:16:31;;;;;;;4.07;2.10;;;;;;;21.90;61.42;93517.31;5028190;28;20132;-83
2023/09/08 08:18:57;;;;;;;5.97;2.35;;;;;;;22.23;64.15;93580.38;5034338;28;20056;-86
2023/09/08 08:21:24;;;;;;;4.70;2.92;;;;;;;22.03;64.12;93563.75;5033761;28;20069;-86
2023/09/08 08:23:51;;;;;;;3.83;2.13;;;;;;;22.07;63.68;93552.78;5028227;28;20058;-86
2023/09/08 08:26:20;;;;;;;4.05;2.25;;;;;;;22.54;63.33;93582.75;5037789;28;20060;-87
2023/09/08 08:28:46;;;;;;;3.97;2.25;;;;;;;22.27;62.16;93526.41;5035693;28;20056;-87
2023/09/08 08:31:13;;;;;;;3.60;2.10;;;;;;;22.88;60.79;93582.97;5027560;28;20049;-85
2023/09/08 08:33:40;;;;;;;4.78;3.13;;;;;;;23.00;61.60;93572.88;5028012;28;20052;-87
2023/09/08 08:36:08;;;;;;;4.63;2.08;;;;;;;23.12;58.92;93587.44;5026796;28;20057;-84
2023/09/08 08:38:35;;;;;;;3.58;2.17;;;;;;;22.69;57.77;93589.69;5031806;28;20167;-84
2023/09/08 08:41:05;;;;;;;3.53;2.30;;;;;;;22.77;59.33;93592.78;5033209;28;20057;-86
2023/09/08 08:43:44;;;;;;;4.22;2.22;;;;;;;22.64;57.72;93534.75;5034234;28;20045;-85
2023/09/08 08:46:15;;;;;;;4.07;2.75;;;;;;;23.38;58.28;93579.31;5031756;28;20049;-85
2023/09/08 08:48:43;;;;;;;5.70;2.63;;;;;;;23.61;56.67;93601.31;5030417;28;20045;-86
2023/09/08 08:51:11;;;;;;;5.75;2.70;;;;;;;23.87;56.53;93598.34;5030237;28;20102;-84
2023/09/08 08:53:41;;;;;;;3.95;2.28;;;;;;;22.95;53.97;93581.59;5031263;28;20499;-83
2023/09/08 08:56:11;;;;;;;4.97;2.60;;;;;;;23.26;54.25;93575.22;5040173;28;20065;-87
2023/09/08 08:58:53;;;;;;;4.70;2.58;;;;;;;22.95;53.85;93557.22;5032404;28;20537;-84
2023/09/08 09:01:21;;;;;;;5.28;2.67;;;;;;;22.93;56.48;93559.34;5033119;28;20052;-84
2023/09/08 09:04:01;;;;;;;5.78;2.88;;;;;;;23.04;55.94;93576.50;5034655;28;20060;-83
2023/09/08 09:06:27;;;;;;;4.82;2.20;;;;;;;22.98;55.07;93546.19;5047004;28;20554;-84
2023/09/08 09:08:54;;;;;;;3.92;2.30;;;;;;;23.16;54.58;93572.72;5049288;28;20041;-83
2023/09/08 09:11:21;;;;;;;6.30;2.00;;;;;;;23.08;54.62;93553.94;5042814;28;20099;-83
2023/09/08 09:13:49;;;;;;;6.18;2.38;;;;;;;23.05;54.36;93549.25;5037335;28;20065;-83
2023/09/08 09:16:16;;;;;;;3.15;2.00;;;;;;;23.03;54.46;93527.00;5029701;28;20059;-85
2023/09/08 09:18:56;;;;;;;4.53;2.80;;;;;;;23.38;54.82;93571.44;5029636;28;20056;-85
2023/09/08 09:21:42;;;;;;;3.53;2.35;;;;;;;22.92;54.53;93579.50;5029663;28;20049;-84
2023/09/08 09:24:16;;;;;;;4.65;2.55;;;;;;;22.79;56.95;93574.94;5040287;28;20098;-85
2023/09/08 09:26:43;;;;;;;4.25;2.45;;;;;;;22.67;54.51;93565.63;5029681;28;21225;-86
2023/09/08 09:29:14;;;;;;;3.05;1.90;;;;;;;22.71;55.77;93571.09;5029424;28;20049;-84
2023/09/08 09:31:53;;;;;;;4.78;2.53;;;;;;;22.45;54.58;93505.84;5038669;28;20122;-85
2023/09/08 09:34:21;;;;;;;3.28;2.13;;;;;;;22.68;54.73;93516.66;5042420;28;20724;-84
2023/09/08 09:36:49;;;;;;;3.88;2.25;;;;;;;23.13;55.73;93560.19;5041472;28;20604;-85
2023/09/08 09:39:19;;;;;;;5.95;2.33;;;;;;;23.12;54.04;93550.75;5043036;28;20584;-85
2023/09/08 09:41:46;;;;;;;4.68;2.50;;;;;;;23.57;52.26;93560.97;5048923;28;20044;-85
2023/09/08 09:44:17;;;;;;;4.00;2.20;;;;;;;24.01;52.72;93551.97;5040583;28;20053;-85
2023/09/08 09:46:45;;;;;;;4.63;2.72;;;;;;;24.12;53.01;93555.22;5028498;28;20500;-85
2023/09/08 09:49:13;;;;;;;4.35;2.20;;;;;;;23.93;51.51;93541.34;5038470;28;20477;-83
2023/09/08 09:51:44;;;;;;;8.70;2.58;;;;;;;23.75;51.83;93478.13;5028516;28;20090;-85
2023/09/08 09:54:12;;;;;;;4.30;2.30;;;;;;;24.29;50.58;93546.84;5031000;28;20041;-86
2023/09/08 09:56:41;;;;;;;4.07;2.50;;;;;;;24.73;52.26;93545.84;5037568;28;20495;-85
2023/09/08 09:59:09;;;;;;;3.05;2.25;;;;;;;24.60;50.50;93548.16;5029243;28;20738;-85
2023/09/08 10:01:38;;;;;;;3.80;2.65;;;;;;;23.84;51.59;93541.22;5034563;28;20053;-80
2023/09/08 10:04:05;;;;;;;4.38;2.60;;;;;;;24.24;53.78;93531.16;5039511;28;20049;-84
2023/09/08 10:06:33;;;;;;;3.97;2.35;;;;;;;24.12;52.94;93538.72;5041766;28;20392;-85
2023/09/08 10:09:00;;;;;;;4.28;2.33;;;;;;;24.34;53.51;93529.44;5048098;28;20045;-84
2023/09/08 10:11:30;;;;;;;3.38;2.17;;;;;;;24.15;53.25;93532.88;5041933;28;20049;-83
2023/09/08 10:14:00;;;;;;;4.07;2.03;;;;;;;24.49;53.46;93517.91;5034613;28;20053;-83
2023/09/08 10:16:28;;;;;;;3.65;2.40;;;;;;;24.10;52.73;93518.00;5030397;28;20076;-83
2023/09/08 10:18:59;;;;;;;2.65;2.00;;;;;;;24.40;53.80;93504.66;5037248;28;20080;-82
2023/09/08 10:21:28;;;;;;;4.82;2.53;;;;;;;24.05;52.91;93486.56;5028574;28;20049;-81
2023/09/08 10:24:01;;;;;;;6.00;2.72;;;;;;;24.41;54.19;93503.59;5028727;28;20049;-84
2023/09/08 10:26:31;;;;;;;6.78;2.78;;;;;;;24.74;53.83;93490.41;5037118;28;20510;-82
2023/09/08 10:28:58;;;;;;;5.57;2.55;;;;;;;24.75;53.04;93506.91;5030014;28;20503;-85
2023/09/08 10:31:27;;;;;;;4.38;2.95;;;;;;;24.51;53.35;93508.66;5037862;28;20056;-82
2023/09/08 10:33:57;;;;;;;4.25;2.28;;;;;;;24.20;53.14;93490.06;5028156;28;20530;-83
2023/09/08 10:36:24;;;;;;;3.95;2.28;;;;;;;24.52;53.28;93504.97;5038587;28;20091;-83
2023/09/08 10:38:52;;;;;;;5.30;2.67;;;;;;;24.37;53.95;93498.16;5034182;28;20081;-84
2023/09/08 10:41:31;;;;;;;4.10;2.45;;;;;;;24.37;54.21;93485.03;5032250;28;20053;-83
2023/09/08 10:44:01;;;;;;;3.97;2.38;;;;;;;24.21;54.47;93499.47;5027879;28;20056;-86
2023/09/08 10:46:29;;;;;;;4.68;2.05;;;;;;;24.38;53.57;93472.66;5036483;28;20498;-85
2023/09/08 10:49:03;;;;;;;3.55;2.15;;;;;;;24.67;52.33;93471.63;5045196;28;20045;-87
2023/09/08 10:51:30;;;;;;;4.03;2.30;;;;;;;25.03;53.39;93455.16;5036852;28;20053;-86
2023/09/08 10:53:57;;;;;;;3.88;2.30;;;;;;;24.64;51.38;93391.56;5042513;28;20056;-85
2023/09/08 10:56:29;;;;;;;4.07;2.33;;;;;;;24.72;51.47;93470.75;5045622;28;20753;-84
2023/09/08 10:59:01;;;;;;;4.28;2.38;;;;;;;24.43;52.61;93441.06;5039017;28;20049;-84
2023/09/08 11:01:28;;;;;;;4.38;2.63;;;;;;;24.32;52.45;93406.34;5047006;28;20036;-83
2023/09/08 11:03:55;;;;;;;3.10;1.90;;;;;;;24.48;51.85;93442.84;5040948;28;20056;-82
2023/09/08 11:06:23;;;;;;;3.50;2.42;;;;;;;24.27;53.35;93435.31;5031275;28;20135;-81
2023/09/08 11:08:52;;;;;;;4.05;2.28;;;;;;;24.68;51.71;93460.03;5043221;28;20534;-84
2023/09/08 11:11:19;;;;;;;6.18;2.67;;;;;;;24.13;52.50;93422.97;5039849;28;20162;-84
2023/09/08 11:13:46;;;;;;;3.65;2.28;;;;;;;24.49;53.43;93453.03;5029478;28;20080;-82
2023/09/08 11:16:14;;;;;;;4.00;2.53;;;;;;;24.50;52.94;93451.97;5037440;28;20143;-84
2023/09/08 11:18:42;;;;;;;4.38;2.45;;;;;;;24.54;54.60;93450.31;5027653;28;20451;-82
2023/09/08 11:21:11;;;;;;;5.80;2.85;;;;;;;24.10;56.80;93433.25;5038430;28;20049;-84
2023/09/08 11:23:39;;;;;;;4.30;2.33;;;;;;;23.97;57.45;93429.53;5027148;28;20099;-83
2023/09/08 11:26:08;;;;;;;4.72;2.90;;;;;;;24.45;56.78;93440.78;5033581;28;20053;-84
2023/09/08 11:28:35;;;;;;;4.13;2.35;;;;;;;24.16;56.87;93450.47;5030875;28;20053;-83
2023/09/08 11:31:03;;;;;;;6.20;2.78;;;;;;;24.35;57.44;93428.63;5038351;28;20053;-82
2023/09/08 11:33:38;;;;;;;6.88;2.67;;;;;;;23.83;57.14;93409.28;5033088;28;20052;-82
2023/09/08 11:36:13;;;;;;;4.13;2.40;;;;;;;23.64;58.50;93416.41;5031086;28;20056;-86
2023/09/08 11:38:44;;;;;;;4.82;2.72;;;;;;;23.94;59.20;93427.47;5028893;28;20504;-85
2023/09/08 11:41:10;;;;;;;6.50;2.30;;;;;;;24.15;58.20;93420.03;5037991;28;20071;-85